La Motte, IA

2:31 AM CDT on September 25, 2016 (GMT -0500)
Dubuque Regional | | Change Station
Active Advisory: Flood Warning, Flood Watch

Elev 1079 ft 42.40 °N, 90.70 °W | Updated 38 minutes ago

Clear
Clear
65 °F
Feels Like 65 °F
N
14
Wind Variable Wind from SE

Today
High -- | Low -- °F
--% Chance of Precip.
Yesterday
High -- | Low -- °F
Precip. -- in
Pressure 30.05 in
Visibility 7.0 miles
Clouds Clear
Dew Point 63 °F
Humidity 93%
Rainfall 0.00 in
Snow Depth Not available.
6:53 AM 6:53 PM
Waning Crescent, 30% visible
METAR KDBQ 250653Z AUTO 13012KT 7SM CLR 18/17 A3006 RMK AO2 SLP175 T01830172
Pressure 30.05 in
Visibility 7.0 miles
Clouds Clear
Dew Point 63 °F
Humidity 93%
Rainfall 0.00 in
Snow Depth Not available.
6:53 AM 6:53 PM
Waning Crescent, 30% visible
METAR KDBQ 250653Z AUTO 13012KT 7SM CLR 18/17 A3006 RMK AO2 SLP175 T01830172

10-Day Weather Forecast

Almanac

Astronomy

Sep. 25, 2016 Rise Set
Actual Time
Civil Twilight
Nautical Twilight
Astronomical Twilight
Moon
Length of Visible Light
Length of Day
Tomorrow will be .
, % of the Moon is Illuminated

Today's Extremes

State Highs State Lows

Community

WunderPhotos

Upload Photos

1,941,554 photos uploaded!

WunderBlog® & News

Nearby

Air Quality

  Air Quality AQ Index Pollutant
Not available.

Snow Depth

Station Depth Elevation

Earthquake Activity

City Distance Mag. Time & Date
Minimum magnitude displayed is 2.5.

Coastal Water Temperatures

Place Temperature

Stations

Nearby Weather Stations

Station Location Temp. Windchill Dew Point Humidity Wind Precip. Elev Updated Type
                   

Watches & Warnings

Flood Warning
Issued: 9:37 PM CDT Sep. 24, 2016 – National Weather Service

... Flood Warning now in effect until further notice...

The Flood Warning continues for
the Mississippi River at Dubuque.
* Until further notice.
* At 8:30 PM Saturday the stage was 16.2 feet... and rising.
* Flood stage is 17 feet.
* No flooding is occurring and moderate flooding is forecast.
* Forecast... rise above flood stage Sunday evening... and continue
rising to 18.3 feet Thursday morning.
* Impact... at 18.0 feet... water overtops the East Dubuque flats
levee.


Lat... Lon 4254 9060 4253 9068 4247 9068 4228 9046
      4235 9039




Flood Watch
Issued: 9:45 PM CDT Sep. 24, 2016 – National Weather Service

The Flood Watch continues for
the Mississippi River at Bellevue ld12
* until further notice.
* At 8:00 PM Saturday the stage was 14.0 feet.
* Flood stage is 17.0 feet.
* Minor flooding is possible.
* Forecast... rise to around 16.5 feet on Friday.
* This is based on forecast rainfall and routed water from upstream,
consequently there is limited confidence in the river reaching flood
stage. Forecasts may change so monitor for updated information.


Lat... Lon 4211 9012 4235 9039 4228 9046 4220 9041
      4208 9019